WetterOnline ( https://www.wetteronline.de )

Wetter aktuell Leipzig

Aktuelles Wetter: Leipzig-Holzhausen (138m)

6-stündlich | Neueste Meldungen
Ortszeit Temperatur Wetter
Sa, 24.02. 7:00 2.4° C leicht bewölkt
Sa, 24.02. 1:00 2.1° C bedeckt
Fr, 23.02. 19:00 5.8° C bedeckt
Fr, 23.02. 13:00 8.2° C wolkig
Fr, 23.02. 7:00 7.1° C wolkig
Fr, 23.02. 1:00 12.0° C wolkig
Do, 22.02. 19:00 11.9° C bedeckt
Do, 22.02. 13:00 12.1° C bedeckt
Ortszeit Temperatur Wetter
Sa, 24.02. 12:30 9.0° C bewölkt
Sa, 24.02. 12:20 9.0° C bewölkt
Sa, 24.02. 12:10 9.6° C wolkig
Sa, 24.02. 12:00 9.9° C leicht bewölkt
Sa, 24.02. 11:50 9.9° C leicht bewölkt
Sa, 24.02. 11:40 9.5° C wolkig
Sa, 24.02. 11:30 9.0° C wolkig
Sa, 24.02. 11:00 7.5° C bedeckt
Sa, 24.02. 10:30 7.2° C bewölkt
Sa, 24.02. 10:00 6.7° C fast wolkenlos
Sa, 24.02. 9:30 5.8° C wolkenlos
Ortszeit Relative Feuchte Sichtweite
Sa, 24.02. 7:00 83% 65 km
Sa, 24.02. 1:00 87% 45 km
Fr, 23.02. 19:00 68% 60 km
Fr, 23.02. 13:00 55% 55 km
Fr, 23.02. 7:00 66% 65 km
Fr, 23.02. 1:00 70% >70 km
Do, 22.02. 19:00 76% >70 km
Do, 22.02. 13:00 72% >70 km
Ortszeit Relative Feuchte Sichtweite
Sa, 24.02. 12:30 57% 65 km
Sa, 24.02. 12:20 57% -
Sa, 24.02. 12:10 57% -
Sa, 24.02. 12:00 55% 50 km
Sa, 24.02. 11:50 55% -
Sa, 24.02. 11:40 57% -
Sa, 24.02. 11:30 59% >70 km
Sa, 24.02. 11:00 64% 50 km
Sa, 24.02. 10:30 63% 50 km
Sa, 24.02. 10:00 65% 55 km
Sa, 24.02. 9:30 69% >70 km
Ortszeit Niederschlagsmenge Niederschlagsart
Sa, 24.02. 7:00 0.0 l/m2 in 12 Std. -
Sa, 24.02. 1:00 0.0 l/m2 in 6 Std. -
Fr, 23.02. 19:00 0.0 l/m2 in 12 Std. -
Fr, 23.02. 13:00 0.0 l/m2 in 6 Std. -
Fr, 23.02. 7:00 0.7 l/m2 in 12 Std. Regen
Fr, 23.02. 1:00 0.7 l/m2 in 6 Std. Regen
Do, 22.02. 19:00 2 l/m2 in 12 Std. Sprühregen
Do, 22.02. 13:00 2 l/m2 in 6 Std. Regen
Ortszeit Niederschlagsmenge Niederschlagsart
Sa, 24.02. 12:30 0.0 l/m2 in 30 Min -
Sa, 24.02. 12:20 keine Meldung -
Sa, 24.02. 12:10 keine Meldung -
Sa, 24.02. 12:00 0.0 l/m2 in 1 Std. -
Sa, 24.02. 11:50 keine Meldung -
Sa, 24.02. 11:40 keine Meldung -
Sa, 24.02. 11:30 0.0 l/m2 in 30 Min -
Sa, 24.02. 11:00 0.0 l/m2 in 1 Std. -
Sa, 24.02. 10:30 0.0 l/m2 in 30 Min -
Sa, 24.02. 10:00 0.0 l/m2 in 1 Std. -
Sa, 24.02. 9:30 0.0 l/m2 in 30 Min -
Ortszeit Stärke Spitze Richtung
km/h Bft. km/h Grad Sektor
Sa, 24.02. 7:00 9 2 20 190° S
Sa, 24.02. 1:00 4 1 18 140° SO
Fr, 23.02. 19:00 7 2 36 200° S
Fr, 23.02. 13:00 13 3 41 200° S
Fr, 23.02. 7:00 18 3 47 240° SW
Fr, 23.02. 1:00 18 3 40 210° SW
Do, 22.02. 19:00 19 3 35 200° S
Do, 22.02. 13:00 13 3 44 230° SW
Ortszeit Stärke Spitze Richtung
km/h Bft. km/h Grad Sektor
Sa, 24.02. 12:30 18 3 36 210° SW
Sa, 24.02. 12:20 18 3 - 210° SW
Sa, 24.02. 12:10 14 3 - 210° SW
Sa, 24.02. 12:00 14 3 32 210° SW
Sa, 24.02. 11:50 14 3 - 210° SW
Sa, 24.02. 11:40 17 3 - 210° SW
Sa, 24.02. 11:30 11 2 25 200° S
Sa, 24.02. 11:00 13 3 26 210° SW
Sa, 24.02. 10:30 14 3 25 210° SW
Sa, 24.02. 10:00 11 2 25 200° S
Sa, 24.02. 9:30 11 2 25 200° S
Ortszeit Untergrenze Bedeckung Gattung
total tief tief mittel hoch
Sa, 24.02. 7:00 1800 m 4/8 4/8 - - -
Sa, 24.02. 1:00 5400 m 8/8 8/8 - - -
Fr, 23.02. 19:00 5100 m 8/8 8/8 - - -
Fr, 23.02. 13:00 1170 m 8/8 2/8 - - -
Fr, 23.02. 7:00 1440 m 7/8 3/8 - - -
Fr, 23.02. 1:00 1320 m 8/8 2/8 - - -
Do, 22.02. 19:00 1080 m 8/8 8/8 - - -
Do, 22.02. 13:00 840 m 8/8 8/8 - - -
Ortszeit Bedeckungsgrad in Achtel und Wolkenuntergrenze
Sa, 24.02. 12:30 5(1170m) 7(1440m) 7(4500m)
Sa, 24.02. 12:20 5(1170m) 7(1440m) 7(4500m)
Sa, 24.02. 12:10 6
Sa, 24.02. 12:00 3(1290m) 4(4500m)
Sa, 24.02. 11:50 3(1290m) 4(4500m)
Sa, 24.02. 11:40 5
Sa, 24.02. 11:30 5(1500m)
Sa, 24.02. 11:00 8(1800m)
Sa, 24.02. 10:30 7(1800m)
Sa, 24.02. 10:00 1(2100m)
Sa, 24.02. 9:30 keine Wolken
Ortszeit Luftdruck NN (hPa) Tendenz (hPa in 3 Std.)
Sa, 24.02. 7:00 1001 + 0,7
Sa, 24.02. 1:00 1000 + 0,1
Fr, 23.02. 19:00 999 + 0,3
Fr, 23.02. 13:00 999 + 1,1
Fr, 23.02. 7:00 995 + 3,8
Fr, 23.02. 1:00 987 + 0,6
Do, 22.02. 19:00 989 - 2,6
Do, 22.02. 13:00 995 - 2,6
Ortszeit Luftdruck NN (hPa) Tendenz (hPa in 3 Std.)
Sa, 24.02. 12:30 1004 + 1,8
Sa, 24.02. 12:20 1004 keine Meldung
Sa, 24.02. 12:10 1004 keine Meldung
Sa, 24.02. 12:00 1003 + 1,8
Sa, 24.02. 11:50 1003 keine Meldung
Sa, 24.02. 11:40 1003 keine Meldung
Sa, 24.02. 11:30 1003 + 2,0
Sa, 24.02. 11:00 1003 + 1,9
Sa, 24.02. 10:30 1003 + 1,8
Sa, 24.02. 10:00 1002 + 1,8
Sa, 24.02. 9:30 1002 + 1,8
Ortszeit Schneehöhe (cm)
Sa, 24.02. 7:00 0
Sa, 24.02. 1:00 0
Fr, 23.02. 19:00 0
Fr, 23.02. 13:00 0
Fr, 23.02. 7:00 0
Fr, 23.02. 1:00 0
Do, 22.02. 19:00 0
Do, 22.02. 13:00 0
Ortszeit Schneehöhe (cm)
Sa, 24.02. 12:30 0
Sa, 24.02. 12:20 0
Sa, 24.02. 12:10 -
Sa, 24.02. 12:00 0
Sa, 24.02. 11:50 0
Sa, 24.02. 11:40 -
Sa, 24.02. 11:30 0
Sa, 24.02. 11:00 0
Sa, 24.02. 10:30 0
Sa, 24.02. 10:00 0
Sa, 24.02. 9:30 0
Link zu dieser Seite / Seite empfehlen

Das Wetter in ...